sensor_id;sensor_type;location;lat;lon;timestamp;P1;durP1;ratioP1;P2;durP2;ratioP2
10511;SDS011;5304;48.604;2.096;2023-03-12T00:02:37;19.13;;;10.03;;
10511;SDS011;5304;48.604;2.096;2023-03-12T00:05:21;15.33;;;9.93;;
10511;SDS011;5304;48.604;2.096;2023-03-12T00:08:08;15.83;;;9.93;;
10511;SDS011;5304;48.604;2.096;2023-03-12T00:10:53;19.63;;;10.30;;
10511;SDS011;5304;48.604;2.096;2023-03-12T00:13:38;19.13;;;10.00;;
10511;SDS011;5304;48.604;2.096;2023-03-12T00:16:23;19.83;;;9.97;;
10511;SDS011;5304;48.604;2.096;2023-03-12T00:19:08;21.53;;;10.77;;
10511;SDS011;5304;48.604;2.096;2023-03-12T00:21:55;19.27;;;10.73;;
10511;SDS011;5304;48.604;2.096;2023-03-12T00:24:39;20.87;;;9.60;;
10511;SDS011;5304;48.604;2.096;2023-03-12T00:27:24;22.67;;;10.90;;
10511;SDS011;5304;48.604;2.096;2023-03-12T00:30:09;19.63;;;10.20;;
10511;SDS011;5304;48.604;2.096;2023-03-12T00:32:54;19.63;;;10.53;;
10511;SDS011;5304;48.604;2.096;2023-03-12T00:35:39;17.40;;;10.27;;
10511;SDS011;5304;48.604;2.096;2023-03-12T00:38:23;19.03;;;10.03;;
10511;SDS011;5304;48.604;2.096;2023-03-12T00:41:08;19.13;;;10.77;;
10511;SDS011;5304;48.604;2.096;2023-03-12T00:43:52;22.47;;;10.27;;
10511;SDS011;5304;48.604;2.096;2023-03-12T00:46:37;21.00;;;10.60;;
10511;SDS011;5304;48.604;2.096;2023-03-12T00:49:21;19.80;;;9.97;;
10511;SDS011;5304;48.604;2.096;2023-03-12T00:52:06;21.33;;;11.13;;
10511;SDS011;5304;48.604;2.096;2023-03-12T00:54:51;25.97;;;10.30;;
10511;SDS011;5304;48.604;2.096;2023-03-12T00:57:35;17.57;;;10.70;;
10511;SDS011;5304;48.604;2.096;2023-03-12T01:00:20;16.70;;;9.87;;
10511;SDS011;5304;48.604;2.096;2023-03-12T01:03:05;18.40;;;9.80;;
10511;SDS011;5304;48.604;2.096;2023-03-12T01:05:49;23.93;;;11.67;;
10511;SDS011;5304;48.604;2.096;2023-03-12T01:08:43;23.73;;;10.90;;
10511;SDS011;5304;48.604;2.096;2023-03-12T01:11:27;19.77;;;9.97;;
10511;SDS011;5304;48.604;2.096;2023-03-12T01:14:12;18.37;;;11.47;;
10511;SDS011;5304;48.604;2.096;2023-03-12T01:16:56;19.63;;;10.23;;
10511;SDS011;5304;48.604;2.096;2023-03-12T01:19:42;23.03;;;10.43;;
10511;SDS011;5304;48.604;2.096;2023-03-12T01:22:27;19.47;;;10.03;;
10511;SDS011;5304;48.604;2.096;2023-03-12T01:25:11;20.33;;;10.37;;
10511;SDS011;5304;48.604;2.096;2023-03-12T01:27:55;18.70;;;10.40;;
10511;SDS011;5304;48.604;2.096;2023-03-12T01:30:40;23.47;;;11.23;;
10511;SDS011;5304;48.604;2.096;2023-03-12T01:33:24;20.77;;;10.30;;
10511;SDS011;5304;48.604;2.096;2023-03-12T01:36:14;22.03;;;10.87;;
10511;SDS011;5304;48.604;2.096;2023-03-12T01:39:04;16.20;;;9.07;;
10511;SDS011;5304;48.604;2.096;2023-03-12T01:41:49;18.67;;;10.53;;
10511;SDS011;5304;48.604;2.096;2023-03-12T01:47:32;21.07;;;10.17;;
10511;SDS011;5304;48.604;2.096;2023-03-12T01:50:16;19.23;;;8.47;;
10511;SDS011;5304;48.604;2.096;2023-03-12T01:53:01;21.63;;;9.43;;
10511;SDS011;5304;48.604;2.096;2023-03-12T01:55:45;25.63;;;10.17;;
10511;SDS011;5304;48.604;2.096;2023-03-12T01:58:30;21.47;;;9.07;;
10511;SDS011;5304;48.604;2.096;2023-03-12T02:01:16;17.10;;;8.27;;
10511;SDS011;5304;48.604;2.096;2023-03-12T02:04:02;19.50;;;8.93;;
10511;SDS011;5304;48.604;2.096;2023-03-12T02:09:50;18.07;;;8.33;;
10511;SDS011;5304;48.604;2.096;2023-03-12T02:12:34;18.93;;;7.60;;
10511;SDS011;5304;48.604;2.096;2023-03-12T02:15:19;18.97;;;6.63;;
10511;SDS011;5304;48.604;2.096;2023-03-12T02:18:07;20.70;;;7.80;;
10511;SDS011;5304;48.604;2.096;2023-03-12T02:26:46;18.40;;;6.50;;
10511;SDS011;5304;48.604;2.096;2023-03-12T02:29:33;19.00;;;6.10;;
10511;SDS011;5304;48.604;2.096;2023-03-12T02:32:21;18.40;;;5.90;;
10511;SDS011;5304;48.604;2.096;2023-03-12T02:35:09;13.73;;;5.90;;
10511;SDS011;5304;48.604;2.096;2023-03-12T02:37:54;16.57;;;6.50;;
10511;SDS011;5304;48.604;2.096;2023-03-12T02:40:41;15.87;;;5.93;;
10511;SDS011;5304;48.604;2.096;2023-03-12T02:43:29;14.80;;;6.10;;
10511;SDS011;5304;48.604;2.096;2023-03-12T02:46:13;20.30;;;6.33;;
10511;SDS011;5304;48.604;2.096;2023-03-12T02:48:58;16.17;;;5.87;;
10511;SDS011;5304;48.604;2.096;2023-03-12T02:51:44;13.33;;;5.50;;
10511;SDS011;5304;48.604;2.096;2023-03-12T02:54:29;16.23;;;5.23;;
10511;SDS011;5304;48.604;2.096;2023-03-12T02:57:14;14.57;;;5.20;;
10511;SDS011;5304;48.604;2.096;2023-03-12T02:59:58;15.97;;;4.90;;
10511;SDS011;5304;48.604;2.096;2023-03-12T03:02:43;15.30;;;5.13;;
10511;SDS011;5304;48.604;2.096;2023-03-12T03:05:27;13.13;;;5.87;;
10511;SDS011;5304;48.604;2.096;2023-03-12T03:08:12;19.00;;;5.53;;
10511;SDS011;5304;48.604;2.096;2023-03-12T03:10:56;11.47;;;5.00;;
10511;SDS011;5304;48.604;2.096;2023-03-12T03:13:43;18.60;;;4.90;;
10511;SDS011;5304;48.604;2.096;2023-03-12T03:16:27;17.00;;;5.50;;
10511;SDS011;5304;48.604;2.096;2023-03-12T03:19:12;15.23;;;5.53;;
10511;SDS011;5304;48.604;2.096;2023-03-12T03:21:56;17.03;;;5.33;;
10511;SDS011;5304;48.604;2.096;2023-03-12T03:24:41;14.50;;;4.20;;
10511;SDS011;5304;48.604;2.096;2023-03-12T03:27:25;17.33;;;5.23;;
10511;SDS011;5304;48.604;2.096;2023-03-12T03:30:10;15.43;;;4.27;;
10511;SDS011;5304;48.604;2.096;2023-03-12T03:32:55;18.00;;;4.80;;
10511;SDS011;5304;48.604;2.096;2023-03-12T03:35:39;14.67;;;4.93;;
10511;SDS011;5304;48.604;2.096;2023-03-12T03:38:24;17.17;;;4.70;;
10511;SDS011;5304;48.604;2.096;2023-03-12T03:41:10;20.40;;;4.60;;
10511;SDS011;5304;48.604;2.096;2023-03-12T03:43:56;14.90;;;4.70;;
10511;SDS011;5304;48.604;2.096;2023-03-12T03:46:41;20.47;;;4.30;;
10511;SDS011;5304;48.604;2.096;2023-03-12T03:49:26;20.77;;;4.70;;
10511;SDS011;5304;48.604;2.096;2023-03-12T03:52:10;16.37;;;3.80;;
10511;SDS011;5304;48.604;2.096;2023-03-12T03:54:55;21.73;;;4.27;;
10511;SDS011;5304;48.604;2.096;2023-03-12T03:57:39;18.50;;;4.20;;
10511;SDS011;5304;48.604;2.096;2023-03-12T04:00:24;16.37;;;3.83;;
10511;SDS011;5304;48.604;2.096;2023-03-12T04:03:08;25.17;;;4.87;;
10511;SDS011;5304;48.604;2.096;2023-03-12T04:05:57;17.00;;;4.73;;
10511;SDS011;5304;48.604;2.096;2023-03-12T04:08:43;22.27;;;5.30;;
10511;SDS011;5304;48.604;2.096;2023-03-12T04:11:27;22.03;;;5.23;;
10511;SDS011;5304;48.604;2.096;2023-03-12T04:14:12;21.90;;;5.40;;
10511;SDS011;5304;48.604;2.096;2023-03-12T04:16:56;24.07;;;5.57;;
10511;SDS011;5304;48.604;2.096;2023-03-12T04:19:44;22.70;;;5.30;;
10511;SDS011;5304;48.604;2.096;2023-03-12T04:22:28;22.07;;;5.10;;
10511;SDS011;5304;48.604;2.096;2023-03-12T04:25:12;16.77;;;4.73;;
10511;SDS011;5304;48.604;2.096;2023-03-12T04:27:57;27.23;;;5.30;;
10511;SDS011;5304;48.604;2.096;2023-03-12T04:30:42;27.53;;;4.80;;
10511;SDS011;5304;48.604;2.096;2023-03-12T04:33:27;23.47;;;4.73;;
10511;SDS011;5304;48.604;2.096;2023-03-12T04:36:13;22.97;;;5.17;;
10511;SDS011;5304;48.604;2.096;2023-03-12T04:38:59;17.87;;;4.60;;
10511;SDS011;5304;48.604;2.096;2023-03-12T04:41:45;15.33;;;5.03;;
10511;SDS011;5304;48.604;2.096;2023-03-12T04:44:29;17.40;;;4.97;;
10511;SDS011;5304;48.604;2.096;2023-03-12T04:47:14;26.50;;;4.87;;
10511;SDS011;5304;48.604;2.096;2023-03-12T04:49:58;21.87;;;4.63;;
10511;SDS011;5304;48.604;2.096;2023-03-12T04:52:43;24.80;;;4.27;;
10511;SDS011;5304;48.604;2.096;2023-03-12T04:55:27;22.50;;;5.13;;
10511;SDS011;5304;48.604;2.096;2023-03-12T04:58:13;22.33;;;4.73;;
10511;SDS011;5304;48.604;2.096;2023-03-12T05:00:59;18.60;;;4.50;;
10511;SDS011;5304;48.604;2.096;2023-03-12T05:03:44;23.40;;;5.03;;
10511;SDS011;5304;48.604;2.096;2023-03-12T05:06:29;23.57;;;4.30;;
10511;SDS011;5304;48.604;2.096;2023-03-12T05:09:13;24.97;;;4.47;;
10511;SDS011;5304;48.604;2.096;2023-03-12T05:11:57;23.73;;;5.50;;
10511;SDS011;5304;48.604;2.096;2023-03-12T05:14:42;27.90;;;5.87;;
10511;SDS011;5304;48.604;2.096;2023-03-12T05:17:26;23.10;;;4.37;;
10511;SDS011;5304;48.604;2.096;2023-03-12T05:20:11;27.63;;;4.47;;
10511;SDS011;5304;48.604;2.096;2023-03-12T05:22:56;18.93;;;4.50;;
10511;SDS011;5304;48.604;2.096;2023-03-12T05:25:41;25.93;;;4.20;;
10511;SDS011;5304;48.604;2.096;2023-03-12T05:28:26;18.33;;;4.43;;
10511;SDS011;5304;48.604;2.096;2023-03-12T05:31:12;21.60;;;4.73;;
10511;SDS011;5304;48.604;2.096;2023-03-12T05:33:58;21.17;;;5.07;;
10511;SDS011;5304;48.604;2.096;2023-03-12T05:36:42;22.63;;;4.40;;
10511;SDS011;5304;48.604;2.096;2023-03-12T05:39:27;19.20;;;4.77;;
10511;SDS011;5304;48.604;2.096;2023-03-12T05:42:12;23.83;;;4.70;;
10511;SDS011;5304;48.604;2.096;2023-03-12T05:44:57;32.43;;;5.57;;
10511;SDS011;5304;48.604;2.096;2023-03-12T05:47:44;27.23;;;4.70;;
10511;SDS011;5304;48.604;2.096;2023-03-12T05:50:28;21.57;;;5.00;;
10511;SDS011;5304;48.604;2.096;2023-03-12T05:53:13;31.03;;;5.80;;
10511;SDS011;5304;48.604;2.096;2023-03-12T05:56:06;18.57;;;4.30;;
10511;SDS011;5304;48.604;2.096;2023-03-12T05:58:53;21.00;;;4.90;;
10511;SDS011;5304;48.604;2.096;2023-03-12T06:01:38;23.97;;;5.47;;
10511;SDS011;5304;48.604;2.096;2023-03-12T06:04:23;22.60;;;5.20;;
10511;SDS011;5304;48.604;2.096;2023-03-12T06:07:07;23.90;;;4.97;;
10511;SDS011;5304;48.604;2.096;2023-03-12T06:09:52;28.63;;;5.00;;
10511;SDS011;5304;48.604;2.096;2023-03-12T06:12:36;27.33;;;5.10;;
10511;SDS011;5304;48.604;2.096;2023-03-12T06:15:21;25.27;;;4.90;;
10511;SDS011;5304;48.604;2.096;2023-03-12T06:18:05;22.97;;;4.63;;
10511;SDS011;5304;48.604;2.096;2023-03-12T06:20:50;16.20;;;4.60;;
10511;SDS011;5304;48.604;2.096;2023-03-12T06:23:34;21.47;;;4.00;;
10511;SDS011;5304;48.604;2.096;2023-03-12T06:26:19;22.93;;;5.00;;
10511;SDS011;5304;48.604;2.096;2023-03-12T06:29:05;25.63;;;4.47;;
10511;SDS011;5304;48.604;2.096;2023-03-12T06:31:49;23.20;;;5.10;;
10511;SDS011;5304;48.604;2.096;2023-03-12T06:34:34;24.97;;;4.30;;
10511;SDS011;5304;48.604;2.096;2023-03-12T06:37:18;25.67;;;4.10;;
10511;SDS011;5304;48.604;2.096;2023-03-12T06:40:03;27.47;;;4.80;;
10511;SDS011;5304;48.604;2.096;2023-03-12T06:42:50;30.77;;;5.07;;
10511;SDS011;5304;48.604;2.096;2023-03-12T06:45:34;30.20;;;4.50;;
10511;SDS011;5304;48.604;2.096;2023-03-12T06:48:19;23.57;;;4.57;;
10511;SDS011;5304;48.604;2.096;2023-03-12T06:51:03;27.87;;;4.80;;
10511;SDS011;5304;48.604;2.096;2023-03-12T06:53:49;27.77;;;5.50;;
10511;SDS011;5304;48.604;2.096;2023-03-12T06:56:33;22.67;;;4.53;;
10511;SDS011;5304;48.604;2.096;2023-03-12T06:59:18;23.97;;;4.27;;
10511;SDS011;5304;48.604;2.096;2023-03-12T07:02:05;32.13;;;5.53;;
10511;SDS011;5304;48.604;2.096;2023-03-12T07:04:49;21.83;;;5.57;;
10511;SDS011;5304;48.604;2.096;2023-03-12T07:07:33;33.20;;;5.17;;
10511;SDS011;5304;48.604;2.096;2023-03-12T07:10:18;25.03;;;4.67;;
10511;SDS011;5304;48.604;2.096;2023-03-12T07:13:02;19.83;;;4.80;;
10511;SDS011;5304;48.604;2.096;2023-03-12T07:15:47;20.43;;;5.17;;
10511;SDS011;5304;48.604;2.096;2023-03-12T07:18:32;18.93;;;4.97;;
10511;SDS011;5304;48.604;2.096;2023-03-12T07:21:16;23.60;;;5.03;;
10511;SDS011;5304;48.604;2.096;2023-03-12T07:24:05;21.97;;;4.77;;
10511;SDS011;5304;48.604;2.096;2023-03-12T07:26:51;25.63;;;6.30;;
10511;SDS011;5304;48.604;2.096;2023-03-12T07:29:35;24.37;;;4.87;;
10511;SDS011;5304;48.604;2.096;2023-03-12T07:32:19;22.27;;;4.80;;
10511;SDS011;5304;48.604;2.096;2023-03-12T07:35:04;26.73;;;4.50;;
10511;SDS011;5304;48.604;2.096;2023-03-12T07:37:49;19.13;;;4.70;;
10511;SDS011;5304;48.604;2.096;2023-03-12T07:40:33;28.33;;;6.53;;
10511;SDS011;5304;48.604;2.096;2023-03-12T07:43:19;19.40;;;4.90;;
10511;SDS011;5304;48.604;2.096;2023-03-12T07:46:04;31.77;;;6.03;;
10511;SDS011;5304;48.604;2.096;2023-03-12T07:48:48;23.27;;;4.23;;
10511;SDS011;5304;48.604;2.096;2023-03-12T07:51:32;23.70;;;4.53;;
10511;SDS011;5304;48.604;2.096;2023-03-12T07:54:17;27.53;;;5.63;;
10511;SDS011;5304;48.604;2.096;2023-03-12T07:57:02;21.80;;;4.23;;
10511;SDS011;5304;48.604;2.096;2023-03-12T07:59:47;22.80;;;5.03;;
10511;SDS011;5304;48.604;2.096;2023-03-12T08:02:32;24.53;;;5.03;;
10511;SDS011;5304;48.604;2.096;2023-03-12T08:05:17;28.23;;;5.37;;
10511;SDS011;5304;48.604;2.096;2023-03-12T08:08:02;23.20;;;5.27;;
10511;SDS011;5304;48.604;2.096;2023-03-12T08:10:46;19.23;;;4.97;;
10511;SDS011;5304;48.604;2.096;2023-03-12T08:13:31;20.83;;;4.97;;
10511;SDS011;5304;48.604;2.096;2023-03-12T08:16:15;17.80;;;4.90;;
10511;SDS011;5304;48.604;2.096;2023-03-12T08:19:01;21.00;;;5.37;;
10511;SDS011;5304;48.604;2.096;2023-03-12T08:21:45;17.23;;;4.97;;
10511;SDS011;5304;48.604;2.096;2023-03-12T08:24:30;18.90;;;5.00;;
10511;SDS011;5304;48.604;2.096;2023-03-12T08:27:14;23.07;;;5.27;;
10511;SDS011;5304;48.604;2.096;2023-03-12T08:29:59;15.83;;;4.63;;
10511;SDS011;5304;48.604;2.096;2023-03-12T08:32:43;18.77;;;4.60;;
10511;SDS011;5304;48.604;2.096;2023-03-12T08:35:27;22.53;;;5.87;;
10511;SDS011;5304;48.604;2.096;2023-03-12T08:38:12;22.73;;;5.33;;
10511;SDS011;5304;48.604;2.096;2023-03-12T08:40:57;24.17;;;5.20;;
10511;SDS011;5304;48.604;2.096;2023-03-12T08:43:43;19.50;;;5.23;;
10511;SDS011;5304;48.604;2.096;2023-03-12T08:46:28;17.57;;;5.20;;
10511;SDS011;5304;48.604;2.096;2023-03-12T08:49:12;24.63;;;5.27;;
10511;SDS011;5304;48.604;2.096;2023-03-12T08:51:57;16.43;;;4.37;;
10511;SDS011;5304;48.604;2.096;2023-03-12T08:54:44;17.33;;;4.70;;
10511;SDS011;5304;48.604;2.096;2023-03-12T08:57:29;20.87;;;4.63;;
10511;SDS011;5304;48.604;2.096;2023-03-12T09:00:13;24.20;;;4.87;;
10511;SDS011;5304;48.604;2.096;2023-03-12T09:02:59;25.93;;;4.67;;
10511;SDS011;5304;48.604;2.096;2023-03-12T09:05:43;17.53;;;4.87;;
10511;SDS011;5304;48.604;2.096;2023-03-12T09:08:28;16.53;;;4.73;;
10511;SDS011;5304;48.604;2.096;2023-03-12T09:11:13;19.70;;;5.27;;
10511;SDS011;5304;48.604;2.096;2023-03-12T09:13:58;17.40;;;5.00;;
10511;SDS011;5304;48.604;2.096;2023-03-12T09:16:44;15.73;;;4.60;;
10511;SDS011;5304;48.604;2.096;2023-03-12T09:19:28;14.90;;;4.80;;
10511;SDS011;5304;48.604;2.096;2023-03-12T09:22:13;21.00;;;5.03;;
10511;SDS011;5304;48.604;2.096;2023-03-12T09:24:57;16.77;;;4.73;;
10511;SDS011;5304;48.604;2.096;2023-03-12T09:27:43;18.37;;;4.70;;
10511;SDS011;5304;48.604;2.096;2023-03-12T09:30:29;24.33;;;5.67;;
10511;SDS011;5304;48.604;2.096;2023-03-12T09:33:14;29.70;;;6.03;;
10511;SDS011;5304;48.604;2.096;2023-03-12T09:35:59;19.00;;;5.37;;
10511;SDS011;5304;48.604;2.096;2023-03-12T09:38:45;24.90;;;6.07;;
10511;SDS011;5304;48.604;2.096;2023-03-12T09:41:30;21.13;;;4.83;;
10511;SDS011;5304;48.604;2.096;2023-03-12T09:44:29;20.43;;;5.43;;
10511;SDS011;5304;48.604;2.096;2023-03-12T09:47:28;17.60;;;4.77;;
10511;SDS011;5304;48.604;2.096;2023-03-12T09:50:51;22.67;;;5.67;;
10511;SDS011;5304;48.604;2.096;2023-03-12T09:56:23;17.33;;;4.87;;
10511;SDS011;5304;48.604;2.096;2023-03-12T09:59:10;19.67;;;4.97;;
10511;SDS011;5304;48.604;2.096;2023-03-12T10:01:56;20.30;;;5.03;;
10511;SDS011;5304;48.604;2.096;2023-03-12T10:04:44;21.90;;;4.63;;
10511;SDS011;5304;48.604;2.096;2023-03-12T10:07:35;18.87;;;4.87;;
10511;SDS011;5304;48.604;2.096;2023-03-12T10:23:02;18.10;;;4.30;;
10511;SDS011;5304;48.604;2.096;2023-03-12T10:32:16;19.53;;;5.20;;
10511;SDS011;5304;48.604;2.096;2023-03-12T10:35:15;22.97;;;5.13;;
10511;SDS011;5304;48.604;2.096;2023-03-12T10:38:04;19.07;;;4.50;;
10511;SDS011;5304;48.604;2.096;2023-03-12T10:40:56;14.50;;;4.50;;
10511;SDS011;5304;48.604;2.096;2023-03-12T10:43:42;24.97;;;5.77;;
10511;SDS011;5304;48.604;2.096;2023-03-12T10:49:48;21.83;;;4.63;;
10511;SDS011;5304;48.604;2.096;2023-03-12T10:52:33;19.40;;;4.67;;
10511;SDS011;5304;48.604;2.096;2023-03-12T10:58:06;23.73;;;5.57;;
10511;SDS011;5304;48.604;2.096;2023-03-12T11:01:06;16.83;;;4.53;;
10511;SDS011;5304;48.604;2.096;2023-03-12T11:04:23;15.10;;;4.27;;
10511;SDS011;5304;48.604;2.096;2023-03-12T11:07:21;21.97;;;4.63;;
10511;SDS011;5304;48.604;2.096;2023-03-12T11:12:55;18.73;;;5.33;;
10511;SDS011;5304;48.604;2.096;2023-03-12T11:15:45;24.10;;;5.10;;
10511;SDS011;5304;48.604;2.096;2023-03-12T11:18:34;18.20;;;4.50;;
10511;SDS011;5304;48.604;2.096;2023-03-12T11:21:19;19.03;;;5.10;;
10511;SDS011;5304;48.604;2.096;2023-03-12T11:26:51;15.77;;;4.73;;
10511;SDS011;5304;48.604;2.096;2023-03-12T11:29:55;21.83;;;5.20;;
10511;SDS011;5304;48.604;2.096;2023-03-12T11:32:42;14.30;;;4.00;;
10511;SDS011;5304;48.604;2.096;2023-03-12T11:38:37;20.20;;;3.83;;
10511;SDS011;5304;48.604;2.096;2023-03-12T11:42:07;21.27;;;4.47;;
10511;SDS011;5304;48.604;2.096;2023-03-12T11:47:54;18.63;;;4.63;;
10511;SDS011;5304;48.604;2.096;2023-03-12T11:53:42;19.43;;;4.23;;
10511;SDS011;5304;48.604;2.096;2023-03-12T11:56:45;16.53;;;4.73;;
10511;SDS011;5304;48.604;2.096;2023-03-12T12:08:55;17.10;;;4.47;;
10511;SDS011;5304;48.604;2.096;2023-03-12T12:25:00;18.53;;;5.07;;
10511;SDS011;5304;48.604;2.096;2023-03-12T12:27:43;16.33;;;4.33;;
10511;SDS011;5304;48.604;2.096;2023-03-12T12:46:05;12.07;;;3.67;;
10511;SDS011;5304;48.604;2.096;2023-03-12T12:49:13;16.60;;;3.50;;
10511;SDS011;5304;48.604;2.096;2023-03-12T12:52:22;14.17;;;3.67;;
10511;SDS011;5304;48.604;2.096;2023-03-12T12:55:21;16.17;;;4.40;;
10511;SDS011;5304;48.604;2.096;2023-03-12T12:58:39;13.37;;;3.60;;
10511;SDS011;5304;48.604;2.096;2023-03-12T13:01:39;11.50;;;3.40;;
10511;SDS011;5304;48.604;2.096;2023-03-12T13:10:05;12.23;;;3.70;;
10511;SDS011;5304;48.604;2.096;2023-03-12T13:12:51;15.57;;;3.70;;
10511;SDS011;5304;48.604;2.096;2023-03-12T13:15:38;15.60;;;4.27;;
10511;SDS011;5304;48.604;2.096;2023-03-12T13:18:29;12.20;;;4.23;;
10511;SDS011;5304;48.604;2.096;2023-03-12T13:21:17;12.10;;;3.43;;
10511;SDS011;5304;48.604;2.096;2023-03-12T13:24:16;12.17;;;3.40;;
10511;SDS011;5304;48.604;2.096;2023-03-12T13:27:22;9.63;;;4.10;;
10511;SDS011;5304;48.604;2.096;2023-03-12T13:33:17;11.87;;;4.10;;
10511;SDS011;5304;48.604;2.096;2023-03-12T13:36:20;12.10;;;3.37;;
10511;SDS011;5304;48.604;2.096;2023-03-12T13:41:54;12.33;;;3.57;;
10511;SDS011;5304;48.604;2.096;2023-03-12T13:44:39;21.50;;;4.33;;
10511;SDS011;5304;48.604;2.096;2023-03-12T13:47:27;13.90;;;3.60;;
10511;SDS011;5304;48.604;2.096;2023-03-12T13:50:14;13.87;;;3.67;;
10511;SDS011;5304;48.604;2.096;2023-03-12T13:53:04;12.93;;;4.20;;
10511;SDS011;5304;48.604;2.096;2023-03-12T13:56:04;8.97;;;3.40;;
10511;SDS011;5304;48.604;2.096;2023-03-12T13:58:53;12.00;;;4.17;;
10511;SDS011;5304;48.604;2.096;2023-03-12T14:01:47;14.23;;;3.50;;
10511;SDS011;5304;48.604;2.096;2023-03-12T14:04:36;13.47;;;3.40;;
10511;SDS011;5304;48.604;2.096;2023-03-12T14:07:38;15.07;;;3.63;;
10511;SDS011;5304;48.604;2.096;2023-03-12T14:16:45;11.13;;;3.10;;
10511;SDS011;5304;48.604;2.096;2023-03-12T14:19:35;11.60;;;3.40;;
10511;SDS011;5304;48.604;2.096;2023-03-12T14:22:29;16.73;;;3.90;;
10511;SDS011;5304;48.604;2.096;2023-03-12T14:25:18;13.63;;;3.53;;
10511;SDS011;5304;48.604;2.096;2023-03-12T14:28:16;12.83;;;2.70;;
10511;SDS011;5304;48.604;2.096;2023-03-12T14:31:04;11.47;;;3.83;;
10511;SDS011;5304;48.604;2.096;2023-03-12T14:34:01;11.57;;;3.00;;
10511;SDS011;5304;48.604;2.096;2023-03-12T14:39:56;17.20;;;3.97;;
10511;SDS011;5304;48.604;2.096;2023-03-12T14:42:50;15.80;;;3.63;;
10511;SDS011;5304;48.604;2.096;2023-03-12T14:45:36;15.17;;;3.60;;
10511;SDS011;5304;48.604;2.096;2023-03-12T14:48:25;13.37;;;4.93;;
10511;SDS011;5304;48.604;2.096;2023-03-12T14:51:18;12.77;;;3.70;;
10511;SDS011;5304;48.604;2.096;2023-03-12T14:54:16;12.17;;;4.47;;
10511;SDS011;5304;48.604;2.096;2023-03-12T14:57:02;14.43;;;4.70;;
10511;SDS011;5304;48.604;2.096;2023-03-12T14:59:56;13.03;;;4.13;;
10511;SDS011;5304;48.604;2.096;2023-03-12T15:02:42;14.30;;;3.80;;
10511;SDS011;5304;48.604;2.096;2023-03-12T15:05:27;11.80;;;3.83;;
10511;SDS011;5304;48.604;2.096;2023-03-12T15:08:12;12.67;;;4.10;;
10511;SDS011;5304;48.604;2.096;2023-03-12T15:10:57;15.97;;;3.77;;
10511;SDS011;5304;48.604;2.096;2023-03-12T15:13:42;11.23;;;3.73;;
10511;SDS011;5304;48.604;2.096;2023-03-12T15:16:26;12.03;;;3.57;;
10511;SDS011;5304;48.604;2.096;2023-03-12T15:19:11;16.33;;;3.20;;
10511;SDS011;5304;48.604;2.096;2023-03-12T15:21:56;11.33;;;3.43;;
10511;SDS011;5304;48.604;2.096;2023-03-12T15:24:42;13.77;;;3.60;;
10511;SDS011;5304;48.604;2.096;2023-03-12T15:30:21;15.73;;;4.20;;
10511;SDS011;5304;48.604;2.096;2023-03-12T15:36:02;16.77;;;4.40;;
10511;SDS011;5304;48.604;2.096;2023-03-12T15:42:13;14.17;;;4.07;;
10511;SDS011;5304;48.604;2.096;2023-03-12T15:45:00;18.47;;;3.90;;
10511;SDS011;5304;48.604;2.096;2023-03-12T15:47:46;19.67;;;4.90;;
10511;SDS011;5304;48.604;2.096;2023-03-12T15:53:24;13.83;;;4.23;;
10511;SDS011;5304;48.604;2.096;2023-03-12T15:59:04;9.63;;;3.83;;
10511;SDS011;5304;48.604;2.096;2023-03-12T16:02:00;16.87;;;4.77;;
10511;SDS011;5304;48.604;2.096;2023-03-12T16:04:45;13.80;;;3.90;;
10511;SDS011;5304;48.604;2.096;2023-03-12T16:07:29;15.10;;;4.63;;
10511;SDS011;5304;48.604;2.096;2023-03-12T16:10:15;18.53;;;4.73;;
10511;SDS011;5304;48.604;2.096;2023-03-12T16:13:02;15.90;;;4.67;;
10511;SDS011;5304;48.604;2.096;2023-03-12T16:15:47;15.23;;;3.50;;
10511;SDS011;5304;48.604;2.096;2023-03-12T16:18:31;14.37;;;4.07;;
10511;SDS011;5304;48.604;2.096;2023-03-12T16:21:16;14.33;;;4.17;;
10511;SDS011;5304;48.604;2.096;2023-03-12T16:24:00;19.90;;;4.30;;
10511;SDS011;5304;48.604;2.096;2023-03-12T16:26:55;19.27;;;4.40;;
10511;SDS011;5304;48.604;2.096;2023-03-12T16:29:43;17.73;;;4.67;;
10511;SDS011;5304;48.604;2.096;2023-03-12T16:32:27;22.03;;;4.97;;
10511;SDS011;5304;48.604;2.096;2023-03-12T16:35:13;13.63;;;4.10;;
10511;SDS011;5304;48.604;2.096;2023-03-12T16:37:59;16.97;;;4.97;;
10511;SDS011;5304;48.604;2.096;2023-03-12T16:40:45;16.47;;;3.87;;
10511;SDS011;5304;48.604;2.096;2023-03-12T16:43:31;16.87;;;3.90;;
10511;SDS011;5304;48.604;2.096;2023-03-12T16:46:18;13.77;;;4.13;;
10511;SDS011;5304;48.604;2.096;2023-03-12T16:49:04;13.53;;;4.67;;
10511;SDS011;5304;48.604;2.096;2023-03-12T16:51:48;18.27;;;4.57;;
10511;SDS011;5304;48.604;2.096;2023-03-12T16:54:33;13.47;;;3.80;;
10511;SDS011;5304;48.604;2.096;2023-03-12T16:57:19;14.83;;;4.97;;
10511;SDS011;5304;48.604;2.096;2023-03-12T17:00:18;15.17;;;4.43;;
10511;SDS011;5304;48.604;2.096;2023-03-12T17:03:11;24.50;;;6.10;;
10511;SDS011;5304;48.604;2.096;2023-03-12T17:06:05;15.63;;;5.57;;
10511;SDS011;5304;48.604;2.096;2023-03-12T17:08:51;21.23;;;5.43;;
10511;SDS011;5304;48.604;2.096;2023-03-12T17:11:36;24.40;;;5.77;;
10511;SDS011;5304;48.604;2.096;2023-03-12T17:14:20;16.50;;;4.43;;
10511;SDS011;5304;48.604;2.096;2023-03-12T17:17:05;13.80;;;6.47;;
10511;SDS011;5304;48.604;2.096;2023-03-12T17:19:50;20.37;;;8.57;;
10511;SDS011;5304;48.604;2.096;2023-03-12T17:22:35;18.10;;;7.40;;
10511;SDS011;5304;48.604;2.096;2023-03-12T17:25:26;25.00;;;11.07;;
10511;SDS011;5304;48.604;2.096;2023-03-12T17:28:13;16.60;;;9.47;;
10511;SDS011;5304;48.604;2.096;2023-03-12T17:30:58;18.30;;;6.67;;
10511;SDS011;5304;48.604;2.096;2023-03-12T17:33:42;15.97;;;6.00;;
10511;SDS011;5304;48.604;2.096;2023-03-12T17:36:28;21.67;;;7.87;;
10511;SDS011;5304;48.604;2.096;2023-03-12T17:39:13;19.40;;;6.87;;
10511;SDS011;5304;48.604;2.096;2023-03-12T17:41:57;16.37;;;6.83;;
10511;SDS011;5304;48.604;2.096;2023-03-12T17:44:42;19.87;;;6.53;;
10511;SDS011;5304;48.604;2.096;2023-03-12T17:47:27;22.07;;;7.07;;
10511;SDS011;5304;48.604;2.096;2023-03-12T17:50:12;19.27;;;6.77;;
10511;SDS011;5304;48.604;2.096;2023-03-12T17:52:57;16.70;;;4.80;;
10511;SDS011;5304;48.604;2.096;2023-03-12T17:55:43;21.27;;;6.17;;
10511;SDS011;5304;48.604;2.096;2023-03-12T17:58:28;13.90;;;5.83;;
10511;SDS011;5304;48.604;2.096;2023-03-12T18:01:12;22.57;;;10.57;;
10511;SDS011;5304;48.604;2.096;2023-03-12T18:03:57;25.83;;;13.33;;
10511;SDS011;5304;48.604;2.096;2023-03-12T18:06:42;18.67;;;7.03;;
10511;SDS011;5304;48.604;2.096;2023-03-12T18:09:26;19.20;;;6.37;;
10511;SDS011;5304;48.604;2.096;2023-03-12T18:12:11;15.40;;;5.07;;
10511;SDS011;5304;48.604;2.096;2023-03-12T18:14:56;18.50;;;5.60;;
10511;SDS011;5304;48.604;2.096;2023-03-12T18:17:40;13.43;;;4.70;;
10511;SDS011;5304;48.604;2.096;2023-03-12T18:20:27;23.10;;;6.50;;
10511;SDS011;5304;48.604;2.096;2023-03-12T18:23:12;16.47;;;4.57;;
10511;SDS011;5304;48.604;2.096;2023-03-12T18:25:56;22.17;;;6.53;;
10511;SDS011;5304;48.604;2.096;2023-03-12T18:28:41;15.30;;;4.37;;
10511;SDS011;5304;48.604;2.096;2023-03-12T18:31:26;14.87;;;5.13;;
10511;SDS011;5304;48.604;2.096;2023-03-12T18:34:11;14.63;;;4.40;;
10511;SDS011;5304;48.604;2.096;2023-03-12T18:36:56;15.23;;;5.03;;
10511;SDS011;5304;48.604;2.096;2023-03-12T18:39:42;14.03;;;4.23;;
10511;SDS011;5304;48.604;2.096;2023-03-12T18:42:26;16.83;;;4.80;;
10511;SDS011;5304;48.604;2.096;2023-03-12T18:45:11;14.77;;;5.03;;
10511;SDS011;5304;48.604;2.096;2023-03-12T18:47:55;18.37;;;4.50;;
10511;SDS011;5304;48.604;2.096;2023-03-12T18:50:40;32.60;;;13.10;;
10511;SDS011;5304;48.604;2.096;2023-03-12T18:53:24;27.70;;;9.57;;